Chicago, Illinois
Traffic Map
Current Weather Conditions
Chicago, Illinois
Overcast
Overcast
-2°
Feels Like: -7°
Wind Chill: -7° Ceiling: 7500
Heat Index: -2° Visibility: 10mi
Dew Point: -9° Wind: 8mph
Humidity: 61% Direction: 160° (SSE)
Pressure: 30.22in Gusts: 0mph
Raw Report DataKMDW 030653Z 16007KT 10SM OVC075 M02/M09 A3022 RMK AO2 SLP246 T10221089
Traffic Incident Summary
Active as of:
Severity:
Category:
InformationThere was an issue retrieving the traffic information for this location. Please try a different location or try again shortly.
Advertisements
Track Severe Weather on mobile